Time;durP1;ratioP1;P1;durP2;ratioP2;P2;SDS_P1;SDS_P2;PMS_P1;PMS_P2;Temp;Humidity;BMP_temperature;BMP_pressure;BME280_temperature;BME280_humidity;BME280_pressure;Samples;Min_cycle;Max_cycle;Signal;HPM_P1;HPM_P2
2022/11/02 00:01:56;;;;;;;1.85;0.85;;;13.00;99.90;;;;;;5038988;28;20067;-73
2022/11/02 00:04:21;;;;;;;1.40;0.40;;;12.90;99.90;;;;;;5040027;28;20033;-73
2022/11/02 00:06:47;;;;;;;0.60;0.30;;;12.90;99.90;;;;;;5024167;28;20048;-73
2022/11/02 00:09:12;;;;;;;1.58;0.40;;;12.80;99.90;;;;;;5023665;28;20041;-73
2022/11/02 00:11:38;;;;;;;0.57;0.20;;;12.80;99.90;;;;;;5022609;28;20047;-73
2022/11/02 00:14:04;;;;;;;1.52;0.45;;;12.80;99.90;;;;;;5037258;28;20044;-73
2022/11/02 00:16:31;;;;;;;0.50;0.20;;;12.70;99.90;;;;;;5037152;28;20122;-74
2022/11/02 00:18:59;;;;;;;1.85;0.70;;;12.70;99.90;;;;;;5023154;28;20033;-73
2022/11/02 00:21:26;;;;;;;1.67;0.70;;;12.70;99.90;;;;;;5038065;28;20044;-73
2022/11/02 00:23:53;;;;;;;1.45;0.50;;;12.70;99.90;;;;;;5037078;28;20083;-74
2022/11/02 00:26:19;;;;;;;9.93;0.77;;;12.60;99.90;;;;;;5038446;28;20048;-73
2022/11/02 00:28:45;;;;;;;1.70;0.32;;;12.70;99.90;;;;;;5038479;28;20037;-74
2022/11/02 00:31:11;;;;;;;3.03;0.60;;;12.60;99.90;;;;;;5038001;28;20482;-74
2022/11/02 00:33:36;;;;;;;2.65;0.68;;;12.70;99.90;;;;;;5037177;28;20033;-74
2022/11/02 00:36:02;;;;;;;0.55;0.30;;;12.60;99.90;;;;;;5025603;28;20398;-73
2022/11/02 00:38:28;;;;;;;1.10;0.32;;;12.70;99.90;;;;;;5037495;28;20155;-74
2022/11/02 00:40:53;;;;;;;0.88;0.35;;;12.70;99.90;;;;;;5037492;28;20518;-73
2022/11/02 00:43:19;;;;;;;0.88;0.45;;;12.70;99.90;;;;;;5039358;28;20045;-73
2022/11/02 00:45:44;;;;;;;2.65;0.45;;;12.70;99.90;;;;;;5037263;28;20048;-74
2022/11/02 00:48:10;;;;;;;0.43;0.30;;;12.70;99.90;;;;;;5034833;28;20041;-74
2022/11/02 00:50:36;;;;;;;2.83;0.32;;;12.70;99.90;;;;;;5039505;28;20036;-74
2022/11/02 00:53:01;;;;;;;5.07;0.50;;;12.70;99.90;;;;;;5021406;28;20493;-74
2022/11/02 00:55:27;;;;;;;0.95;0.40;;;12.70;99.90;;;;;;5036593;28;20060;-74
2022/11/02 00:57:53;;;;;;;0.50;0.28;;;12.70;99.90;;;;;;5038895;28;20045;-73
2022/11/02 01:00:19;;;;;;;0.47;0.20;;;12.70;99.90;;;;;;5036577;28;20128;-73
2022/11/02 01:02:44;;;;;;;0.32;0.20;;;12.60;99.90;;;;;;5038834;28;20401;-73
2022/11/02 01:05:11;;;;;;;1.95;0.70;;;12.60;99.90;;;;;;5023393;28;20446;-73
2022/11/02 01:07:37;;;;;;;1.35;0.50;;;12.60;99.90;;;;;;5040388;28;20029;-73
2022/11/02 01:10:07;;;;;;;1.75;0.40;;;12.60;99.90;;;;;;5037601;28;20429;-74
2022/11/02 01:12:36;;;;;;;1.58;0.55;;;12.60;99.90;;;;;;5036777;28;20697;-73
2022/11/02 01:15:02;;;;;;;2.10;1.38;;;12.50;99.90;;;;;;5020050;28;20086;-73
2022/11/02 01:17:28;;;;;;;2.00;0.38;;;12.50;99.90;;;;;;5039088;28;20041;-73
2022/11/02 01:19:54;;;;;;;1.17;0.25;;;12.50;99.90;;;;;;5049248;28;20490;-73
2022/11/02 01:22:19;;;;;;;1.55;0.35;;;12.50;99.90;;;;;;5039926;28;20045;-74
2022/11/02 01:24:45;;;;;;;0.50;0.30;;;12.50;99.90;;;;;;5039116;28;20037;-74
2022/11/02 01:27:10;;;;;;;0.68;0.20;;;12.50;99.90;;;;;;5037992;28;20040;-74
2022/11/02 01:29:36;;;;;;;0.60;0.30;;;12.50;99.90;;;;;;5036101;28;20041;-74
2022/11/02 01:32:01;;;;;;;1.88;0.43;;;12.50;99.90;;;;;;5022054;28;20041;-74
2022/11/02 01:34:27;;;;;;;2.03;0.40;;;12.50;99.90;;;;;;5041674;28;20049;-74
2022/11/02 01:36:53;;;;;;;0.45;0.22;;;12.50;99.90;;;;;;5038122;28;20037;-74
2022/11/02 01:39:18;;;;;;;1.80;0.35;;;12.40;99.90;;;;;;5040649;28;20095;-74
2022/11/02 01:41:44;;;;;;;1.30;0.30;;;12.40;99.90;;;;;;5023658;28;20457;-74
2022/11/02 01:44:27;;;;;;;1.63;0.47;;;12.40;99.90;;;;;;5038346;28;20037;-74
2022/11/02 01:46:56;;;;;;;3.22;0.45;;;12.40;99.90;;;;;;5039677;28;20037;-74
2022/11/02 01:49:22;;;;;;;0.90;0.30;;;12.40;99.90;;;;;;5022479;28;20044;-74
2022/11/02 01:52:01;;;;;;;0.35;0.25;;;12.40;99.90;;;;;;5042375;28;20040;-74
2022/11/02 01:54:36;;;;;;;0.40;0.20;;;12.40;99.90;;;;;;5039038;28;20025;-74
2022/11/02 01:57:05;;;;;;;3.38;0.95;;;12.30;99.90;;;;;;5040731;28;20137;-74
2022/11/02 01:59:41;;;;;;;2.22;0.60;;;12.30;99.90;;;;;;5039967;28;20064;-74
2022/11/02 02:02:10;;;;;;;;;;;12.30;99.90;;;;;;5020076;28;20041;-74
2022/11/02 02:04:36;;;;;;;1.27;0.40;;;12.30;99.90;;;;;;5025187;28;19924;-74
2022/11/02 02:07:02;;;;;;;1.27;0.70;;;12.20;99.90;;;;;;5042277;28;20040;-74
2022/11/02 02:09:28;;;;;;;3.72;0.45;;;12.20;99.90;;;;;;5038440;28;20477;-74
2022/11/02 02:11:54;;;;;;;5.07;1.10;;;12.20;99.90;;;;;;5024575;28;20041;-74
2022/11/02 02:14:20;;;;;;;3.78;0.50;;;12.20;99.90;;;;;;5041222;28;20536;-74
2022/11/02 02:16:48;;;;;;;0.70;0.30;;;12.20;99.90;;;;;;5024487;28;20044;-74
2022/11/02 02:19:37;;;;;;;1.50;0.28;;;12.20;99.90;;;;;;5021314;28;20059;-74
2022/11/02 02:22:46;;;;;;;2.13;0.60;;;12.20;99.90;;;;;;5024677;28;20048;-74
2022/11/02 02:25:49;;;;;;;0.50;0.35;;;12.20;99.90;;;;;;5038645;28;20068;-74
2022/11/02 02:28:32;;;;;;;0.50;0.30;;;12.20;99.90;;;;;;5038058;28;20494;-74
2022/11/02 02:31:03;;;;;;;5.10;0.90;;;12.20;99.90;;;;;;5037682;28;20036;-74
2022/11/02 02:33:31;;;;;;;2.70;0.52;;;12.20;99.90;;;;;;5038921;28;20041;-74
2022/11/02 02:36:16;;;;;;;1.02;0.52;;;12.20;99.90;;;;;;5038736;28;20044;-74
2022/11/02 02:38:44;;;;;;;3.17;0.82;;;12.20;99.90;;;;;;5037432;28;20059;-74
2022/11/02 02:41:12;;;;;;;1.13;0.60;;;12.20;99.90;;;;;;5039687;28;20047;-74
2022/11/02 02:43:45;;;;;;;1.23;0.55;;;12.20;99.90;;;;;;5023646;28;20097;-74
2022/11/02 02:46:36;;;;;;;0.65;0.38;;;12.10;99.90;;;;;;5039904;28;20048;-74
2022/11/02 02:49:03;;;;;;;0.77;0.30;;;12.10;99.90;;;;;;5038904;28;20555;-74
2022/11/02 02:51:31;;;;;;;0.50;0.35;;;12.10;99.90;;;;;;5058591;28;20048;-73
2022/11/02 02:54:05;;;;;;;0.85;0.30;;;12.00;99.90;;;;;;5071565;28;20067;-74
2022/11/02 02:56:38;;;;;;;1.65;0.50;;;12.00;99.90;;;;;;5039190;28;20040;-73
2022/11/02 02:59:28;;;;;;;1.02;0.20;;;12.00;99.90;;;;;;5040675;28;20044;-74
2022/11/02 03:01:55;;;;;;;0.77;0.35;;;11.90;99.90;;;;;;5040893;28;20033;-74
2022/11/02 03:04:21;;;;;;;0.88;0.30;;;11.90;99.90;;;;;;5040316;28;20041;-74
2022/11/02 03:06:55;;;;;;;0.57;0.25;;;11.90;99.90;;;;;;5038959;28;20039;-74
2022/11/02 03:09:31;;;;;;;1.42;0.40;;;11.90;99.90;;;;;;5037930;28;20072;-74
2022/11/02 03:12:29;;;;;;;0.75;0.25;;;11.90;99.90;;;;;;5039288;28;20040;-74
2022/11/02 03:14:57;;;;;;;0.10;0.10;;;11.90;99.90;;;;;;5004485;28;20505;-74
2022/11/02 03:17:37;;;;;;;3.03;0.40;;;11.90;99.90;;;;;;5037108;28;20045;-74
2022/11/02 03:20:18;;;;;;;0.50;0.22;;;11.90;99.90;;;;;;5023427;28;20450;-74
2022/11/02 03:23:10;;;;;;;0.98;0.38;;;11.80;99.90;;;;;;5056378;28;20127;-74
2022/11/02 03:26:12;;;;;;;0.85;0.20;;;11.80;99.90;;;;;;5038133;28;20498;-74
2022/11/02 03:28:53;;;;;;;2.80;0.20;;;11.70;99.90;;;;;;5021275;28;20083;-74
2022/11/02 03:31:30;;;;;;;0.93;0.30;;;11.70;99.90;;;;;;5022667;28;20068;-74
2022/11/02 03:34:29;;;;;;;3.88;0.35;;;11.70;99.90;;;;;;5038178;28;20033;-74
2022/11/02 03:37:20;;;;;;;1.60;0.30;;;11.60;99.90;;;;;;5021479;28;20052;-74
2022/11/02 03:39:52;;;;;;;2.47;0.20;;;11.60;99.90;;;;;;5038617;28;20059;-74
2022/11/02 03:42:22;;;;;;;0.22;0.15;;;11.60;99.90;;;;;;5023459;28;20037;-74
2022/11/02 03:44:51;;;;;;;0.57;0.20;;;11.50;99.90;;;;;;5021271;28;20041;-73
2022/11/02 03:47:19;;;;;;;0.35;0.15;;;11.50;99.90;;;;;;5042825;28;20040;-73
2022/11/02 03:49:47;;;;;;;3.85;0.47;;;11.50;99.90;;;;;;5039979;28;20052;-73
2022/11/02 03:52:18;;;;;;;0.20;0.20;;;11.40;99.90;;;;;;5038653;28;20052;-73
2022/11/02 03:54:48;;;;;;;0.82;0.35;;;11.40;99.90;;;;;;5038957;28;20071;-74
2022/11/02 03:57:22;;;;;;;0.43;0.10;;;11.40;99.90;;;;;;5037812;28;20201;-73
2022/11/02 03:59:48;;;;;;;1.33;0.25;;;11.40;99.90;;;;;;5037815;28;20041;-73
2022/11/02 04:02:16;;;;;;;3.40;0.40;;;11.40;99.90;;;;;;5037591;28;20240;-74
2022/11/02 04:04:50;;;;;;;0.70;0.30;;;11.40;99.90;;;;;;5023460;28;20439;-73
2022/11/02 04:07:21;;;;;;;3.03;0.52;;;11.40;99.90;;;;;;5035478;28;20048;-74
2022/11/02 04:09:46;;;;;;;3.28;0.35;;;11.30;99.90;;;;;;5036997;28;20025;-74
2022/11/02 04:14:56;;;;;;;0.65;0.30;;;11.40;99.90;;;;;;5037801;28;20057;-74
2022/11/02 04:20:06;;;;;;;0.95;0.17;;;11.40;99.90;;;;;;5039503;28;20144;-74
2022/11/02 04:25:18;;;;;;;0.35;0.20;;;11.30;99.90;;;;;;5039478;28;20091;-74
2022/11/02 04:27:53;;;;;;;2.10;0.20;;;11.30;99.90;;;;;;5040009;28;20037;-74
2022/11/02 04:30:21;;;;;;;0.52;0.52;;;11.30;99.90;;;;;;5039231;28;20068;-74
2022/11/02 04:35:33;;;;;;;;;;;11.20;99.90;;;;;;5040448;28;20088;-74
2022/11/02 04:40:44;;;;;;;1.25;0.50;;;11.30;99.90;;;;;;5041126;28;20041;-74
2022/11/02 04:43:10;;;;;;;3.22;0.60;;;11.30;99.90;;;;;;5039316;28;20099;-74
2022/11/02 04:45:36;;;;;;;0.20;0.15;;;11.30;99.90;;;;;;5042766;28;20045;-74
2022/11/02 04:48:06;;;;;;;4.80;0.52;;;11.30;99.90;;;;;;5040024;28;20041;-74
2022/11/02 04:50:32;;;;;;;2.05;0.38;;;11.40;99.90;;;;;;5027284;28;20068;-74
2022/11/02 04:53:00;;;;;;;0.77;0.40;;;11.40;99.90;;;;;;5054734;28;20441;-74
2022/11/02 04:55:26;;;;;;;2.20;0.50;;;11.50;99.90;;;;;;5041779;28;20478;-74
2022/11/02 04:57:52;;;;;;;0.45;0.20;;;11.50;99.90;;;;;;5041098;28;20040;-74
2022/11/02 05:00:18;;;;;;;1.25;0.55;;;11.50;99.90;;;;;;5023967;28;20045;-74
2022/11/02 05:02:48;;;;;;;1.73;0.30;;;11.50;99.90;;;;;;5057418;28;20727;-74
2022/11/02 05:05:15;;;;;;;2.40;0.50;;;11.50;99.90;;;;;;5043177;28;20091;-74
2022/11/02 05:07:41;;;;;;;0.43;0.40;;;11.50;99.90;;;;;;5028547;28;20033;-74
2022/11/02 05:10:08;;;;;;;2.20;0.73;;;11.50;99.90;;;;;;5042200;28;20623;-73
2022/11/02 05:12:33;;;;;;;0.98;0.52;;;11.60;99.90;;;;;;5030359;28;20091;-74
2022/11/02 05:14:59;;;;;;;1.48;0.52;;;11.60;99.90;;;;;;5042557;28;20069;-74
2022/11/02 05:17:25;;;;;;;2.80;0.38;;;11.60;99.90;;;;;;5059649;28;20048;-74
2022/11/02 05:19:50;;;;;;;1.80;0.40;;;11.60;99.90;;;;;;5028432;28;20041;-73
2022/11/02 05:22:16;;;;;;;2.65;0.65;;;11.60;99.90;;;;;;5036687;28;20045;-74
2022/11/02 05:24:42;;;;;;;2.13;0.30;;;11.60;99.90;;;;;;5045135;28;20306;-74
2022/11/02 05:27:09;;;;;;;0.47;0.20;;;11.50;99.90;;;;;;5043107;28;20037;-74
2022/11/02 05:29:35;;;;;;;1.02;0.50;;;11.60;99.90;;;;;;5041318;28;20091;-74
2022/11/02 05:32:00;;;;;;;5.68;0.85;;;11.60;99.90;;;;;;5045859;28;20049;-74
2022/11/02 05:34:26;;;;;;;2.90;0.63;;;11.60;99.90;;;;;;5043840;28;20119;-74
2022/11/02 05:36:52;;;;;;;1.63;0.52;;;11.50;99.90;;;;;;5045652;28;20448;-73
2022/11/02 05:39:18;;;;;;;0.85;0.30;;;11.50;99.90;;;;;;5044626;28;20549;-74
2022/11/02 05:41:43;;;;;;;6.50;1.00;;;11.60;99.90;;;;;;5042873;28;20040;-73
2022/11/02 05:44:09;;;;;;;1.63;0.93;;;11.50;99.90;;;;;;5043084;28;20122;-74
2022/11/02 05:46:34;;;;;;;0.93;0.45;;;11.60;99.90;;;;;;5042358;28;20418;-74
2022/11/02 05:49:00;;;;;;;2.58;0.70;;;11.50;99.90;;;;;;5043445;28;20041;-74
2022/11/02 05:51:26;;;;;;;0.25;0.15;;;11.50;99.90;;;;;;5046305;28;20153;-74
2022/11/02 05:53:51;;;;;;;2.85;0.38;;;11.50;99.90;;;;;;5027712;28;20045;-74
2022/11/02 05:56:17;;;;;;;2.63;0.35;;;11.50;99.90;;;;;;5028179;28;21358;-74
2022/11/02 05:58:42;;;;;;;1.58;0.20;;;11.50;99.90;;;;;;5026673;28;20053;-73
2022/11/02 06:01:09;;;;;;;1.27;0.30;;;11.50;99.90;;;;;;5026521;28;20044;-73
2022/11/02 06:03:36;;;;;;;1.50;0.70;;;11.40;99.90;;;;;;5045567;28;20041;-74
2022/11/02 06:06:08;;;;;;;4.85;0.80;;;11.40;99.90;;;;;;5027268;28;20048;-73
2022/11/02 06:08:34;;;;;;;7.60;0.70;;;11.40;99.90;;;;;;5040928;28;20116;-74
2022/11/02 06:11:09;;;;;;;0.70;0.40;;;11.50;99.90;;;;;;5042461;28;20045;-74
2022/11/02 06:13:35;;;;;;;1.42;0.40;;;11.40;99.90;;;;;;5041111;28;20606;-74
2022/11/02 06:16:02;;;;;;;1.52;0.60;;;11.40;99.90;;;;;;5042214;28;20120;-74
2022/11/02 06:18:30;;;;;;;2.08;0.40;;;11.40;99.90;;;;;;5044010;28;20037;-74
2022/11/02 06:20:57;;;;;;;6.78;0.85;;;11.40;99.90;;;;;;5041721;28;20082;-73
2022/11/02 06:23:23;;;;;;;0.93;0.40;;;11.30;99.90;;;;;;5041932;28;20047;-74
2022/11/02 06:25:51;;;;;;;2.72;0.60;;;11.40;99.90;;;;;;5029204;28;20082;-73
2022/11/02 06:28:16;;;;;;;2.15;0.40;;;11.30;99.90;;;;;;5042822;28;20466;-73
2022/11/02 06:30:42;;;;;;;3.83;0.73;;;11.30;99.90;;;;;;5040292;28;20089;-74
2022/11/02 06:33:08;;;;;;;2.17;0.50;;;11.30;99.90;;;;;;5043296;28;20467;-74
2022/11/02 06:35:33;;;;;;;1.05;0.75;;;11.30;99.90;;;;;;5031219;28;20036;-74
2022/11/02 06:37:59;;;;;;;2.40;0.57;;;11.30;99.90;;;;;;5046675;28;20040;-72
2022/11/02 06:40:25;;;;;;;1.10;0.47;;;11.30;99.90;;;;;;5043642;28;20056;-73
2022/11/02 06:42:57;;;;;;;2.03;0.57;;;11.20;99.90;;;;;;5042974;28;20856;-73
2022/11/02 06:45:23;;;;;;;3.25;0.60;;;11.20;99.90;;;;;;5041849;28;20037;-73
2022/11/02 06:47:49;;;;;;;2.10;0.70;;;11.20;99.90;;;;;;5042633;28;20059;-73
2022/11/02 06:50:15;;;;;;;2.83;0.50;;;11.20;99.90;;;;;;5041137;28;20056;-74
2022/11/02 06:52:45;;;;;;;2.17;0.60;;;11.20;99.90;;;;;;5076098;28;20473;-73
2022/11/02 06:55:12;;;;;;;2.88;0.25;;;11.20;99.90;;;;;;5042790;28;20036;-73
2022/11/02 06:57:39;;;;;;;1.80;0.60;;;11.30;99.90;;;;;;5022606;28;20318;-73
2022/11/02 07:00:07;;;;;;;4.82;0.43;;;11.30;99.90;;;;;;5044562;28;20048;-73
2022/11/02 07:02:32;;;;;;;0.35;0.30;;;11.30;99.90;;;;;;5041141;28;20056;-73
2022/11/02 07:04:58;;;;;;;1.20;0.40;;;11.40;99.90;;;;;;5045115;28;20041;-73
2022/11/02 07:07:23;;;;;;;5.70;0.95;;;11.40;99.90;;;;;;5043481;28;20140;-73
2022/11/02 07:09:49;;;;;;;6.32;0.60;;;11.40;99.90;;;;;;5042065;28;20552;-73
2022/11/02 07:12:14;;;;;;;2.70;0.80;;;11.40;99.90;;;;;;5042567;28;20091;-74
2022/11/02 07:14:40;;;;;;;1.20;0.38;;;11.40;99.90;;;;;;5040378;28;20053;-76
2022/11/02 07:17:06;;;;;;;0.70;0.43;;;11.40;99.90;;;;;;5020868;28;20102;-73
2022/11/02 07:19:31;;;;;;;0.45;0.20;;;11.50;99.90;;;;;;5026264;28;20505;-73
2022/11/02 07:21:57;;;;;;;7.50;0.63;;;11.50;99.90;;;;;;5042485;28;20570;-73
2022/11/02 07:24:24;;;;;;;9.15;0.73;;;11.50;99.90;;;;;;5040866;28;20045;-73
2022/11/02 07:26:49;;;;;;;1.52;0.57;;;11.50;99.90;;;;;;5039269;28;20043;-73
2022/11/02 07:29:16;;;;;;;1.63;0.22;;;11.50;99.90;;;;;;5039996;28;20119;-73
2022/11/02 07:31:42;;;;;;;1.20;0.50;;;11.50;99.90;;;;;;5042722;28;20041;-74
2022/11/02 07:34:07;;;;;;;0.40;0.25;;;11.40;99.90;;;;;;5041758;28;20040;-74
2022/11/02 07:36:33;;;;;;;1.38;0.40;;;11.40;99.90;;;;;;5043596;28;20033;-74
2022/11/02 07:38:59;;;;;;;0.20;0.20;;;11.40;99.90;;;;;;5042106;28;20490;-74
2022/11/02 07:41:24;;;;;;;3.85;0.50;;;11.40;99.90;;;;;;5043027;28;20407;-73
2022/11/02 07:43:50;;;;;;;0.75;0.20;;;11.40;99.90;;;;;;5042445;28;20041;-73
2022/11/02 07:46:15;;;;;;;1.17;0.30;;;11.30;99.90;;;;;;5042645;28;20090;-73
2022/11/02 07:48:41;;;;;;;0.20;0.20;;;11.30;99.90;;;;;;5025215;28;20091;-73
2022/11/02 07:51:07;;;;;;;3.30;0.47;;;11.30;99.90;;;;;;5041368;28;20032;-73
2022/11/02 07:53:33;;;;;;;1.45;0.20;;;11.30;99.90;;;;;;5042304;28;20129;-73
2022/11/02 07:55:59;;;;;;;1.38;0.50;;;11.30;99.90;;;;;;5043428;28;20044;-74
2022/11/02 07:58:25;;;;;;;0.50;0.40;;;11.30;99.90;;;;;;5041941;28;20040;-73
2022/11/02 08:00:53;;;;;;;2.05;0.20;;;11.30;99.90;;;;;;5040252;28;20037;-73
2022/11/02 08:03:19;;;;;;;7.65;0.68;;;11.30;99.90;;;;;;5042589;28;20402;-74
2022/11/02 08:05:45;;;;;;;2.72;0.85;;;11.40;99.90;;;;;;5040611;28;20045;-74
2022/11/02 08:08:16;;;;;;;2.67;0.38;;;11.40;99.90;;;;;;5043251;28;20376;-74
2022/11/02 08:10:42;;;;;;;2.47;0.30;;;11.40;99.90;;;;;;5043226;28;20486;-74
2022/11/02 08:13:10;;;;;;;0.80;0.32;;;11.50;99.90;;;;;;5024023;28;20123;-74
2022/11/02 08:15:36;;;;;;;1.30;0.50;;;11.50;99.90;;;;;;5044253;28;20083;-74
2022/11/02 08:18:14;;;;;;;4.05;0.50;;;11.50;99.90;;;;;;5023665;28;20040;-73
2022/11/02 08:20:41;;;;;;;3.78;0.80;;;11.50;99.90;;;;;;5041461;28;20040;-73
2022/11/02 08:23:08;;;;;;;1.33;0.20;;;11.50;99.90;;;;;;5040292;28;20052;-73
2022/11/02 08:25:34;;;;;;;1.23;0.57;;;11.50;99.90;;;;;;5060562;28;20041;-74
2022/11/02 08:28:00;;;;;;;2.55;0.15;;;11.50;99.90;;;;;;5040643;28;20075;-74
2022/11/02 08:30:27;;;;;;;2.35;0.40;;;11.50;99.90;;;;;;5039665;28;20047;-74
2022/11/02 08:32:53;;;;;;;1.75;0.30;;;11.60;99.90;;;;;;5041832;28;20029;-74
2022/11/02 08:35:19;;;;;;;4.03;0.60;;;11.60;99.90;;;;;;5042825;28;20047;-74
2022/11/02 08:37:51;;;;;;;1.10;0.60;;;11.60;99.90;;;;;;5025645;28;20437;-74
2022/11/02 08:40:16;;;;;;;3.40;0.38;;;11.70;99.90;;;;;;5044738;28;20052;-74
2022/11/02 08:42:42;;;;;;;3.03;0.63;;;11.70;99.90;;;;;;5046784;28;20060;-73
2022/11/02 08:45:08;;;;;;;1.17;0.20;;;11.70;99.90;;;;;;5045743;28;20193;-74
2022/11/02 08:47:38;;;;;;;1.65;0.10;;;11.70;99.90;;;;;;5047295;28;20037;-74
2022/11/02 08:50:04;;;;;;;0.20;0.10;;;11.80;99.90;;;;;;5060182;28;20124;-74
2022/11/02 08:52:35;;;;;;;5.55;0.85;;;11.90;99.90;;;;;;5046963;28;20111;-74
2022/11/02 08:55:00;;;;;;;0.82;0.20;;;12.00;99.90;;;;;;5028373;28;20083;-74
2022/11/02 08:57:26;;;;;;;4.50;0.57;;;12.00;99.90;;;;;;5045758;28;20040;-74
2022/11/02 08:59:52;;;;;;;2.60;0.40;;;12.00;99.90;;;;;;5031385;28;20033;-74
2022/11/02 09:02:18;;;;;;;0.43;0.20;;;12.10;99.90;;;;;;5047277;28;20115;-74
2022/11/02 09:04:43;;;;;;;0.57;0.20;;;12.10;99.90;;;;;;5045685;28;20041;-74
2022/11/02 09:07:09;;;;;;;2.63;0.45;;;12.10;99.90;;;;;;5044030;28;20029;-74
2022/11/02 09:09:35;;;;;;;1.02;0.50;;;12.10;99.90;;;;;;5045708;28;20171;-74
2022/11/02 09:12:00;;;;;;;2.20;0.65;;;12.10;99.90;;;;;;5028459;28;20036;-73
2022/11/02 09:14:26;;;;;;;3.33;0.98;;;12.10;99.90;;;;;;5045817;28;20070;-73
2022/11/02 09:16:52;;;;;;;2.50;0.47;;;12.10;99.90;;;;;;5030783;28;20541;-74
2022/11/02 09:19:18;;;;;;;2.60;0.52;;;12.10;99.90;;;;;;5026533;28;20033;-73
2022/11/02 09:21:43;;;;;;;7.70;0.30;;;12.10;99.90;;;;;;5039394;28;20052;-74
2022/11/02 09:24:09;;;;;;;4.00;1.23;;;12.10;99.90;;;;;;5039620;28;20040;-74
2022/11/02 09:26:34;;;;;;;0.75;0.10;;;12.20;99.90;;;;;;5027187;28;20041;-74
2022/11/02 09:29:00;;;;;;;1.52;0.40;;;12.20;99.90;;;;;;5044010;28;21684;-74
2022/11/02 09:31:28;;;;;;;0.80;0.20;;;12.20;99.90;;;;;;5043926;28;20043;-73
2022/11/02 09:33:53;;;;;;;4.03;0.20;;;12.20;99.90;;;;;;5044322;28;20473;-74
2022/11/02 09:36:19;;;;;;;0.52;0.30;;;12.20;99.90;;;;;;5043400;28;20128;-73
2022/11/02 09:38:45;;;;;;;1.73;0.17;;;12.30;99.90;;;;;;5043239;28;20653;-74
2022/11/02 09:41:20;;;;;;;1.13;0.20;;;12.30;99.90;;;;;;5041378;28;20029;-73
2022/11/02 09:43:52;;;;;;;9.10;0.68;;;12.30;99.90;;;;;;5041903;28;20045;-74
2022/11/02 09:46:23;;;;;;;0.52;0.30;;;12.40;99.90;;;;;;5041243;28;20045;-73
2022/11/02 09:49:08;;;;;;;6.22;0.40;;;12.40;99.90;;;;;;5045651;28;20051;-74
2022/11/02 09:51:47;;;;;;;1.42;0.90;;;12.50;99.90;;;;;;5045860;28;20045;-74
2022/11/02 09:54:32;;;;;;;0.28;0.20;;;12.50;99.90;;;;;;5026748;28;20041;-74
2022/11/02 09:57:03;;;;;;;2.03;0.20;;;12.50;99.90;;;;;;5038974;28;20090;-74
2022/11/02 09:59:29;;;;;;;0.32;0.25;;;12.50;99.90;;;;;;5043796;28;20047;-74
2022/11/02 10:02:21;;;;;;;1.95;0.63;;;12.50;99.90;;;;;;5043978;28;20037;-74
2022/11/02 10:04:55;;;;;;;0.93;0.40;;;12.60;99.90;;;;;;5045405;28;20069;-74
2022/11/02 10:07:40;;;;;;;0.68;0.30;;;12.60;99.90;;;;;;5044304;28;20037;-74
2022/11/02 10:10:31;;;;;;;1.40;0.52;;;12.60;99.90;;;;;;5059898;28;20051;-74
2022/11/02 10:13:33;;;;;;;1.95;0.22;;;12.60;99.90;;;;;;5042879;28;20094;-73
2022/11/02 10:16:17;;;;;;;1.85;0.30;;;12.60;99.90;;;;;;5025625;28;20048;-74
2022/11/02 10:18:48;;;;;;;3.40;0.50;;;12.70;99.90;;;;;;5044373;28;20502;-73
2022/11/02 10:21:19;;;;;;;0.57;0.20;;;12.70;99.90;;;;;;5042186;28;20083;-73
2022/11/02 10:23:54;;;;;;;0.30;0.20;;;12.80;99.90;;;;;;5038838;28;20577;-73
2022/11/02 10:26:42;;;;;;;0.95;0.22;;;12.80;99.90;;;;;;5035129;28;20047;-74
2022/11/02 10:29:15;;;;;;;1.02;0.25;;;12.80;99.90;;;;;;5041103;28;20041;-73
2022/11/02 10:31:42;;;;;;;2.75;0.40;;;12.90;99.90;;;;;;5047050;28;20119;-73
2022/11/02 10:34:24;;;;;;;0.70;0.30;;;13.00;99.90;;;;;;5026393;28;20123;-73
2022/11/02 10:37:06;;;;;;;2.35;0.32;;;13.00;99.90;;;;;;5044058;28;20048;-73
2022/11/02 10:39:38;;;;;;;2.28;0.30;;;13.00;99.90;;;;;;5024601;28;21070;-73
2022/11/02 10:42:12;;;;;;;1.42;0.30;;;13.10;99.90;;;;;;5043317;28;20073;-73
2022/11/02 10:44:56;;;;;;;6.85;0.40;;;13.10;99.90;;;;;;5043985;28;20055;-73
2022/11/02 10:47:24;;;;;;;5.00;0.85;;;13.10;99.90;;;;;;5028605;28;20041;-73
2022/11/02 10:50:01;;;;;;;1.17;0.30;;;13.10;99.90;;;;;;5029094;28;20045;-73
2022/11/02 10:52:34;;;;;;;4.72;0.35;;;13.20;99.90;;;;;;5042847;28;20041;-74
2022/11/02 10:55:00;;;;;;;2.28;0.50;;;13.20;99.90;;;;;;5041872;28;20040;-74
2022/11/02 10:57:26;;;;;;;2.03;0.10;;;13.20;99.90;;;;;;5040736;28;20426;-74
2022/11/02 11:00:24;;;;;;;6.03;0.55;;;13.30;99.90;;;;;;5040416;28;20033;-74
2022/11/02 11:03:08;;;;;;;1.25;0.32;;;13.30;99.90;;;;;;5031294;28;20033;-73
2022/11/02 11:05:37;;;;;;;1.08;0.30;;;13.30;99.90;;;;;;5023107;28;20487;-73
2022/11/02 11:08:04;;;;;;;3.60;0.40;;;13.30;99.90;;;;;;5040556;28;20041;-73
2022/11/02 11:10:36;;;;;;;2.42;0.30;;;13.30;99.90;;;;;;5040448;28;20037;-73
2022/11/02 11:13:02;;;;;;;1.35;0.30;;;13.20;99.90;;;;;;5056696;28;20103;-73
2022/11/02 11:15:31;;;;;;;1.13;0.30;;;13.20;99.90;;;;;;5041164;28;20072;-73
2022/11/02 11:17:57;;;;;;;0.50;0.32;;;13.10;99.90;;;;;;5044742;28;20040;-78
2022/11/02 11:20:34;;;;;;;0.50;0.30;;;13.00;99.90;;;;;;5040488;28;20040;-74
2022/11/02 11:23:15;;;;;;;0.63;0.20;;;12.90;99.90;;;;;;5040624;28;20033;-73
2022/11/02 11:25:41;;;;;;;3.42;0.28;;;12.90;99.90;;;;;;5056141;28;20399;-73
2022/11/02 11:28:25;;;;;;;2.33;0.20;;;12.80;99.90;;;;;;5037836;28;20479;-73
2022/11/02 11:31:09;;;;;;;1.83;0.32;;;12.80;99.90;;;;;;5036117;28;20048;-74
2022/11/02 11:33:49;;;;;;;1.52;0.40;;;12.90;99.90;;;;;;5032164;28;20051;-74
2022/11/02 11:36:30;;;;;;;4.45;0.40;;;12.90;99.90;;;;;;5038293;28;20463;-74
2022/11/02 11:39:06;;;;;;;3.63;0.68;;;13.00;99.90;;;;;;5035592;28;20045;-74
2022/11/02 11:41:33;;;;;;;4.10;0.40;;;13.00;99.90;;;;;;5036935;28;20123;-74
2022/11/02 11:44:01;;;;;;;0.30;0.15;;;13.10;99.90;;;;;;5015770;28;20054;-74
2022/11/02 11:46:54;;;;;;;0.15;0.10;;;13.10;99.90;;;;;;5015143;28;20422;-74
2022/11/02 11:49:25;;;;;;;2.45;0.50;;;13.10;99.90;;;;;;5037557;28;20040;-73
2022/11/02 11:51:54;;;;;;;1.75;0.20;;;13.10;99.90;;;;;;5025474;28;20426;-74
2022/11/02 11:54:29;;;;;;;0.45;0.20;;;13.20;99.90;;;;;;5056745;28;20052;-73
2022/11/02 11:57:15;;;;;;;0.52;0.20;;;13.20;99.90;;;;;;5040808;28;20513;-74
2022/11/02 11:59:45;;;;;;;3.88;0.40;;;13.20;99.90;;;;;;5036275;28;20585;-73
2022/11/02 12:02:29;;;;;;;0.38;0.10;;;13.10;99.90;;;;;;5041282;28;20041;-73
2022/11/02 12:05:11;;;;;;;1.23;0.22;;;13.10;99.90;;;;;;5040074;28;20044;-73
2022/11/02 12:08:05;;;;;;;2.80;0.40;;;13.00;99.90;;;;;;5028819;28;20047;-73
2022/11/02 12:10:42;;;;;;;0.65;0.38;;;13.00;99.90;;;;;;5040462;28;20410;-73
2022/11/02 12:13:41;;;;;;;5.85;0.43;;;12.90;99.90;;;;;;5040890;28;20391;-73
2022/11/02 12:16:13;;;;;;;4.15;0.77;;;12.90;99.90;;;;;;5039060;28;20107;-73
2022/11/02 12:18:47;;;;;;;0.70;0.30;;;12.80;99.90;;;;;;5041359;28;20510;-73
2022/11/02 12:21:28;;;;;;;3.17;0.35;;;12.80;99.90;;;;;;5041793;28;20041;-73
2022/11/02 12:24:03;;;;;;;4.22;0.20;;;12.70;99.90;;;;;;5041101;28;20075;-73
2022/11/02 12:26:56;;;;;;;4.50;0.55;;;12.70;99.90;;;;;;5041654;28;20029;-74
2022/11/02 12:30:03;;;;;;;1.00;0.45;;;12.70;99.90;;;;;;5034875;28;20610;-73
2022/11/02 12:33:02;;;;;;;1.90;0.30;;;12.70;99.90;;;;;;5036053;28;20131;-73
2022/11/02 12:35:46;;;;;;;2.50;0.30;;;12.70;99.90;;;;;;5022016;28;20044;-73
2022/11/02 12:38:19;;;;;;;0.38;0.20;;;12.70;99.90;;;;;;5034472;28;20087;-73
2022/11/02 12:41:02;;;;;;;0.85;0.40;;;12.60;99.90;;;;;;5018962;28;20056;-73
2022/11/02 12:43:36;;;;;;;2.42;0.30;;;12.70;99.90;;;;;;5031438;28;20041;-70
2022/11/02 12:46:20;;;;;;;0.85;0.32;;;12.60;99.90;;;;;;5037697;28;20041;-73
2022/11/02 12:49:11;;;;;;;2.78;0.30;;;12.70;99.90;;;;;;5033285;28;20785;-73
2022/11/02 12:52:00;;;;;;;0.60;0.25;;;12.70;99.90;;;;;;5036789;28;20045;-73
2022/11/02 12:55:07;;;;;;;1.23;0.10;;;12.80;99.90;;;;;;5013323;28;20048;-73
2022/11/02 12:57:37;;;;;;;2.10;0.35;;;12.80;99.90;;;;;;5031777;28;20041;-73
2022/11/02 13:00:21;;;;;;;4.45;0.45;;;12.90;99.90;;;;;;5026574;28;20048;-73
2022/11/02 13:03:20;;;;;;;5.32;0.57;;;13.00;99.90;;;;;;5030159;28;20705;-74
2022/11/02 13:05:53;;;;;;;1.80;0.40;;;13.10;99.90;;;;;;5036195;28;20041;-73
2022/11/02 13:08:38;;;;;;;0.03;0.03;;;13.20;99.90;;;;;;5035426;28;20131;-74
2022/11/02 13:11:14;;;;;;;1.65;0.68;;;13.30;99.90;;;;;;5018837;28;20124;-74
2022/11/02 13:13:47;;;;;;;2.13;0.10;;;13.50;99.90;;;;;;5036761;28;20103;-74
2022/11/02 13:16:15;;;;;;;4.68;0.52;;;13.50;99.90;;;;;;5039302;28;20076;-74
2022/11/02 13:18:44;;;;;;;3.28;0.63;;;13.50;99.90;;;;;;5021381;28;20687;-73
2022/11/02 13:21:13;;;;;;;4.55;0.80;;;13.50;99.90;;;;;;5041857;28;20043;-74
2022/11/02 13:23:49;;;;;;;2.28;0.47;;;13.50;99.90;;;;;;5033878;28;20082;-74